createdAt,value
2019-03-24T00:02:14.430Z,26.27
2019-03-24T00:04:45.934Z,26.10
2019-03-24T00:07:17.319Z,27.30
2019-03-24T00:09:48.718Z,27.98
2019-03-24T00:12:24.644Z,28.77
2019-03-24T00:14:56.011Z,26.20
2019-03-24T00:17:26.927Z,24.13
2019-03-24T00:19:58.358Z,29.48
2019-03-24T00:22:29.688Z,28.73
2019-03-24T00:25:00.999Z,29.55
2019-03-24T00:27:32.435Z,27.62
2019-03-24T00:30:04.289Z,25.77
2019-03-24T00:32:35.723Z,27.50
2019-03-24T00:35:07.534Z,28.50
2019-03-24T00:37:38.956Z,27.82
2019-03-24T00:40:18.127Z,29.98
2019-03-24T00:42:49.061Z,29.43
2019-03-24T00:45:20.495Z,30.40
2019-03-24T00:47:52.059Z,31.40
2019-03-24T00:50:23.563Z,28.07
2019-03-24T00:52:54.890Z,28.80
2019-03-24T00:55:26.279Z,28.57
2019-03-24T00:57:57.831Z,26.85
2019-03-24T01:00:49.281Z,26.93
2019-03-24T01:03:20.731Z,30.80
2019-03-24T01:05:51.708Z,26.47
2019-03-24T01:08:23.199Z,26.52
2019-03-24T01:10:54.677Z,26.85
2019-03-24T01:13:26.136Z,26.00
2019-03-24T01:15:57.519Z,28.45
2019-03-24T01:18:28.946Z,30.02
2019-03-24T01:21:02.171Z,30.57
2019-03-24T01:23:34.633Z,30.23
2019-03-24T01:26:06.112Z,31.82
2019-03-24T01:28:37.715Z,30.90
2019-03-24T01:31:09.183Z,30.20
2019-03-24T01:33:40.549Z,31.95
2019-03-24T01:36:11.942Z,30.85
2019-03-24T01:38:42.764Z,34.97
2019-03-24T01:41:14.080Z,27.62
2019-03-24T01:43:45.435Z,29.55
2019-03-24T01:46:16.824Z,30.32
2019-03-24T01:48:48.167Z,33.18
2019-03-24T01:51:19.561Z,27.98
2019-03-24T01:53:51.968Z,26.33
2019-03-24T01:56:23.365Z,29.80
2019-03-24T01:58:54.830Z,28.35
2019-03-24T02:01:26.219Z,30.40
2019-03-24T02:03:57.120Z,25.77
2019-03-24T02:06:28.017Z,28.87
2019-03-24T02:08:59.520Z,31.20
2019-03-24T02:11:30.503Z,26.93
2019-03-24T02:14:01.323Z,32.73
2019-03-24T02:16:32.955Z,29.23
2019-03-24T02:19:04.459Z,30.15
2019-03-24T02:21:35.815Z,25.48
2019-03-24T02:24:07.275Z,28.40
2019-03-24T02:26:38.595Z,25.32
2019-03-24T02:29:10.002Z,29.48
2019-03-24T02:31:40.745Z,29.13
2019-03-24T02:34:12.067Z,35.80
2019-03-24T02:36:43.423Z,39.13
2019-03-24T02:39:14.831Z,30.68
2019-03-24T02:41:46.136Z,30.00
2019-03-24T02:44:17.576Z,26.93
2019-03-24T02:46:48.907Z,27.22
2019-03-24T02:49:19.762Z,26.03
2019-03-24T02:51:51.203Z,28.17
2019-03-24T02:54:22.021Z,26.40
2019-03-24T02:56:53.049Z,29.30
2019-03-24T02:59:23.802Z,29.73
2019-03-24T03:01:55.321Z,33.78
2019-03-24T03:04:26.072Z,34.13
2019-03-24T03:06:57.451Z,32.40
2019-03-24T03:09:28.799Z,34.20
2019-03-24T03:12:00.224Z,32.95
2019-03-24T03:14:31.092Z,29.47
2019-03-24T03:17:02.519Z,30.17
2019-03-24T03:19:33.353Z,29.30
2019-03-24T03:22:04.900Z,31.62
2019-03-24T03:24:35.664Z,28.03
2019-03-24T03:27:07.096Z,25.88
2019-03-24T03:29:38.421Z,27.32
2019-03-24T03:32:09.189Z,30.70
2019-03-24T03:34:40.613Z,28.38
2019-03-24T03:37:12.067Z,29.20
2019-03-24T03:39:42.909Z,28.47
2019-03-24T03:42:14.377Z,28.77
2019-03-24T03:44:45.306Z,28.97
2019-03-24T03:47:16.693Z,27.58
2019-03-24T03:49:48.009Z,30.57
2019-03-24T03:52:18.891Z,29.00
2019-03-24T03:54:51.342Z,29.90
2019-03-24T03:57:22.655Z,30.70
2019-03-24T03:59:53.520Z,28.57
2019-03-24T04:02:24.855Z,34.60
2019-03-24T04:04:55.624Z,30.17
2019-03-24T04:07:26.368Z,30.77
2019-03-24T04:09:57.681Z,28.20
2019-03-24T04:12:29.980Z,34.67
2019-03-24T04:15:01.456Z,34.45
2019-03-24T04:17:32.337Z,34.97
2019-03-24T04:20:04.092Z,28.62
2019-03-24T04:22:39.376Z,31.37
2019-03-24T04:25:14.979Z,26.82
2019-03-24T04:27:46.342Z,28.27
2019-03-24T04:30:17.399Z,28.37
2019-03-24T04:32:48.272Z,24.73
2019-03-24T04:35:18.996Z,29.40
2019-03-24T04:37:50.460Z,27.15
2019-03-24T04:40:21.311Z,27.00
2019-03-24T04:42:52.765Z,26.95
2019-03-24T04:45:23.663Z,26.00
2019-03-24T04:47:55.207Z,24.12
2019-03-24T04:50:25.981Z,24.87
2019-03-24T04:52:56.719Z,23.57
2019-03-24T04:55:27.533Z,24.70
2019-03-24T04:57:58.943Z,23.47
2019-03-24T05:00:40.129Z,22.90
2019-03-24T05:03:11.711Z,24.25
2019-03-24T05:05:43.330Z,27.25
2019-03-24T05:08:15.511Z,27.17
2019-03-24T05:10:46.996Z,27.15
2019-03-24T05:13:18.470Z,27.58
2019-03-24T05:15:49.823Z,28.83
2019-03-24T05:18:20.600Z,32.80
2019-03-24T05:20:51.916Z,30.00
2019-03-24T05:23:22.830Z,30.57
2019-03-24T05:25:53.817Z,26.70
2019-03-24T05:28:24.567Z,30.67
2019-03-24T05:30:55.964Z,27.25
2019-03-24T05:33:27.408Z,28.25
2019-03-24T05:35:58.737Z,29.00
2019-03-24T05:38:29.537Z,26.97
2019-03-24T05:41:00.279Z,31.10
2019-03-24T05:43:31.031Z,32.43
2019-03-24T05:46:01.806Z,23.83
2019-03-24T05:48:32.551Z,25.67
2019-03-24T05:51:03.943Z,28.75
2019-03-24T05:53:35.359Z,22.40
2019-03-24T05:56:06.107Z,25.20
2019-03-24T05:58:37.008Z,25.23
2019-03-24T06:01:07.762Z,24.53
2019-03-24T06:03:39.104Z,25.27
2019-03-24T06:06:10.433Z,21.45
2019-03-24T06:08:41.776Z,23.40
2019-03-24T06:11:12.544Z,24.03
2019-03-24T06:13:43.867Z,22.58
2019-03-24T06:16:14.722Z,21.60
2019-03-24T06:18:46.071Z,21.40
2019-03-24T06:21:17.415Z,26.10
2019-03-24T06:23:48.746Z,26.50
2019-03-24T06:26:20.111Z,23.47
2019-03-24T06:28:51.449Z,23.73
2019-03-24T06:31:22.814Z,24.57
2019-03-24T06:33:53.631Z,22.10
2019-03-24T06:36:24.959Z,24.95
2019-03-24T06:38:57.316Z,25.00
2019-03-24T06:41:28.043Z,21.40
2019-03-24T06:43:58.855Z,20.43
2019-03-24T06:46:30.185Z,22.17
2019-03-24T06:49:01.611Z,23.62
2019-03-24T06:51:33.004Z,24.23
2019-03-24T06:54:04.631Z,22.17
2019-03-24T06:56:36.146Z,21.52
2019-03-24T06:59:07.560Z,22.40
2019-03-24T07:01:39.905Z,19.90
2019-03-24T07:04:11.272Z,19.20
2019-03-24T07:06:42.730Z,20.25
2019-03-24T07:09:14.139Z,20.37
2019-03-24T07:11:45.592Z,26.12
2019-03-24T07:14:16.980Z,20.17
2019-03-24T07:16:48.395Z,18.52
2019-03-24T07:19:19.780Z,18.37
2019-03-24T07:21:51.463Z,20.50
2019-03-24T07:24:22.862Z,18.75
2019-03-24T07:26:56.240Z,21.68
2019-03-24T07:29:27.606Z,20.17
2019-03-24T07:31:59.043Z,22.42
2019-03-24T07:34:30.479Z,17.67
2019-03-24T07:37:01.919Z,18.25
2019-03-24T07:39:33.303Z,20.92
2019-03-24T07:42:05.634Z,18.37
2019-03-24T07:44:37.185Z,20.32
2019-03-24T07:47:13.415Z,21.37
2019-03-24T07:49:44.867Z,20.75
2019-03-24T07:52:23.445Z,18.60
2019-03-24T07:54:58.483Z,16.93
2019-03-24T07:57:29.899Z,17.75
2019-03-24T08:00:01.264Z,18.23
2019-03-24T08:02:32.735Z,18.65
2019-03-24T08:05:04.435Z,18.87
2019-03-24T08:07:35.936Z,17.60
2019-03-24T08:10:07.715Z,74.80
2019-03-24T08:12:39.299Z,44.77
2019-03-24T08:15:29.136Z,37.17
2019-03-24T08:18:02.169Z,27.20
2019-03-24T08:20:33.548Z,31.35
2019-03-24T08:23:05.123Z,26.23
2019-03-24T08:25:36.602Z,26.20
2019-03-24T08:28:08.032Z,23.18
2019-03-24T08:30:39.851Z,21.50
2019-03-24T08:33:11.275Z,21.12
2019-03-24T08:35:42.700Z,19.25
2019-03-24T08:38:14.186Z,18.37
2019-03-24T08:40:45.751Z,19.62
2019-03-24T08:43:17.151Z,20.77
2019-03-24T08:45:48.511Z,24.65
2019-03-24T08:48:19.956Z,23.38
2019-03-24T08:50:51.472Z,82.55
2019-03-24T08:53:23.983Z,33.23
2019-03-24T08:55:55.416Z,25.10
2019-03-24T08:58:26.842Z,23.95
2019-03-24T09:00:58.264Z,19.85
2019-03-24T09:03:29.622Z,20.17
2019-03-24T09:06:00.978Z,17.75
2019-03-24T09:08:32.444Z,18.10
2019-03-24T09:11:03.972Z,17.32
2019-03-24T09:13:35.309Z,18.92
2019-03-24T09:16:06.927Z,18.02
2019-03-24T09:18:38.604Z,18.45
2019-03-24T09:21:09.975Z,19.55
2019-03-24T09:23:41.415Z,18.20
2019-03-24T09:26:12.882Z,16.73
2019-03-24T09:28:44.311Z,18.23
2019-03-24T09:31:15.731Z,17.37
2019-03-24T09:33:47.111Z,18.23
2019-03-24T09:36:18.561Z,18.35
2019-03-24T09:38:49.907Z,22.58
2019-03-24T09:41:21.327Z,24.98
2019-03-24T09:43:52.906Z,37.13
2019-03-24T09:46:24.308Z,38.02
2019-03-24T09:49:03.059Z,34.35
2019-03-24T09:51:29.210Z,37.85
2019-03-24T09:54:00.725Z,36.80
2019-03-24T09:56:32.203Z,36.63
2019-03-24T09:59:03.744Z,36.80
2019-03-24T10:01:35.127Z,37.30
2019-03-24T10:04:06.556Z,36.20
2019-03-24T10:06:38.071Z,39.38
2019-03-24T10:09:09.399Z,36.25
2019-03-24T10:11:40.819Z,32.80
2019-03-24T10:14:12.150Z,38.00
2019-03-24T10:16:43.783Z,79.50
2019-03-24T10:19:15.167Z,86.97
2019-03-24T10:21:46.598Z,69.72
2019-03-24T10:24:17.969Z,45.30
2019-03-24T10:26:52.674Z,41.77
2019-03-24T10:29:24.219Z,37.63
2019-03-24T10:31:55.611Z,36.58
2019-03-24T10:34:27.115Z,32.83
2019-03-24T10:36:58.583Z,36.03
2019-03-24T10:39:31.856Z,37.53
2019-03-24T11:04:38.677Z,33.90
2019-03-24T11:07:09.491Z,34.53
2019-03-24T11:09:40.228Z,32.73
2019-03-24T11:12:11.103Z,36.63
2019-03-24T11:14:42.299Z,37.33
2019-03-24T11:17:14.112Z,36.03
2019-03-24T11:19:44.893Z,35.78
2019-03-24T11:22:15.608Z,39.03
2019-03-24T11:24:46.342Z,37.03
2019-03-24T11:27:17.077Z,38.45
2019-03-24T11:29:47.807Z,36.60
2019-03-24T11:32:18.547Z,33.80
2019-03-24T11:34:49.375Z,34.27
2019-03-24T11:37:20.147Z,37.65
2019-03-24T11:39:50.886Z,36.35
2019-03-24T11:42:21.690Z,35.28
2019-03-24T11:44:52.427Z,33.13
2019-03-24T11:47:26.784Z,39.58
2019-03-24T11:49:56.041Z,39.58
2019-03-24T11:52:26.963Z,35.58
2019-03-24T11:54:57.712Z,40.58
2019-03-24T11:57:28.674Z,40.60
2019-03-24T11:59:59.667Z,33.42
2019-03-24T12:02:30.439Z,34.40
2019-03-24T12:05:01.179Z,30.70
2019-03-24T12:07:31.924Z,31.12
2019-03-24T12:10:02.731Z,32.00
2019-03-24T12:12:33.655Z,30.37
2019-03-24T12:15:05.472Z,32.63
2019-03-24T12:17:36.439Z,31.70
2019-03-24T12:20:07.991Z,33.58
2019-03-24T12:22:38.752Z,28.12
2019-03-24T12:25:09.885Z,28.10
2019-03-24T12:27:40.756Z,30.68
2019-03-24T12:30:12.328Z,54.83
2019-03-24T12:32:43.549Z,32.08
2019-03-24T12:35:15.490Z,28.67
2019-03-24T12:37:46.228Z,25.92
2019-03-24T12:40:17.126Z,37.30
2019-03-24T12:42:47.900Z,28.50
2019-03-24T12:45:18.814Z,27.80
2019-03-24T12:47:49.572Z,28.17
2019-03-24T12:50:30.934Z,28.70
2019-03-24T12:52:52.995Z,28.25
2019-03-24T12:55:23.742Z,30.40
2019-03-24T12:57:54.520Z,32.70
2019-03-24T13:00:36.759Z,33.50
2019-03-24T13:03:07.640Z,32.08
2019-03-24T13:05:38.567Z,33.92
2019-03-24T13:08:16.659Z,27.37
2019-03-24T13:10:48.846Z,25.90
2019-03-24T13:13:19.685Z,27.40
2019-03-24T13:15:50.843Z,26.00
2019-03-24T13:18:21.662Z,28.02
2019-03-24T13:20:52.450Z,26.12
2019-03-24T13:23:23.278Z,25.08
2019-03-24T13:25:54.094Z,27.70
2019-03-24T13:28:24.807Z,29.23
2019-03-24T13:30:55.787Z,29.80
2019-03-24T13:33:26.610Z,26.23
2019-03-24T13:36:11.979Z,28.83
2019-03-24T13:38:42.719Z,27.37
2019-03-24T13:41:13.520Z,28.27
2019-03-24T13:43:44.403Z,29.63
2019-03-24T13:46:15.272Z,28.52
2019-03-24T13:48:47.378Z,29.52
2019-03-24T13:51:18.131Z,29.52
2019-03-24T13:53:48.960Z,35.65
2019-03-24T13:56:19.780Z,33.00
2019-03-24T13:58:50.580Z,29.48
2019-03-24T14:01:21.593Z,28.92
2019-03-24T14:03:52.332Z,30.82
2019-03-24T14:06:23.154Z,26.87
2019-03-24T14:08:53.932Z,112.88
2019-03-24T14:11:24.688Z,30.62
2019-03-24T14:13:55.423Z,31.77
2019-03-24T14:16:26.356Z,30.95
2019-03-24T14:18:57.141Z,32.90
2019-03-24T14:21:27.927Z,33.90
2019-03-24T14:23:58.666Z,32.53
2019-03-24T14:26:29.561Z,37.73
2019-03-24T14:29:00.299Z,32.48
2019-03-24T14:31:31.067Z,35.03
2019-03-24T14:34:01.853Z,33.08
2019-03-24T14:36:32.670Z,32.17
2019-03-24T14:39:05.276Z,32.42
2019-03-24T14:41:36.151Z,31.68
2019-03-24T14:44:06.867Z,32.73
2019-03-24T14:46:37.623Z,35.33
2019-03-24T14:49:08.436Z,29.30
2019-03-24T14:51:39.272Z,31.90
2019-03-24T14:54:10.099Z,33.65
2019-03-24T14:56:40.863Z,33.18
2019-03-24T14:59:11.598Z,32.85
2019-03-24T15:01:42.442Z,30.02
2019-03-24T15:04:13.275Z,32.45
2019-03-24T15:06:44.095Z,35.73
2019-03-24T15:09:14.907Z,38.83
2019-03-24T15:11:45.773Z,32.13
2019-03-24T15:14:16.583Z,30.32
2019-03-24T15:16:47.824Z,35.33
2019-03-24T15:19:18.577Z,35.05
2019-03-24T15:21:52.367Z,36.25
2019-03-24T15:24:23.204Z,31.37
2019-03-24T15:26:54.143Z,34.70
2019-03-24T15:29:24.899Z,36.40
2019-03-24T15:31:55.734Z,33.00
2019-03-24T15:34:26.488Z,35.83
2019-03-24T15:36:57.283Z,35.17
2019-03-24T15:39:28.036Z,35.15
2019-03-24T15:41:58.902Z,41.25
2019-03-24T15:44:29.712Z,35.20
2019-03-24T15:47:01.493Z,34.88
2019-03-24T15:49:32.300Z,37.13
2019-03-24T15:52:03.040Z,35.95
2019-03-24T15:54:33.780Z,37.28
2019-03-24T15:57:04.659Z,36.25
2019-03-24T15:59:35.474Z,36.85
2019-03-24T16:02:06.450Z,34.90
2019-03-24T16:04:37.391Z,37.38
2019-03-24T16:07:08.250Z,44.55
2019-03-24T16:09:39.092Z,34.53
2019-03-24T16:12:09.845Z,33.13
2019-03-24T16:14:40.703Z,39.08
2019-03-24T16:17:11.528Z,34.85
2019-03-24T16:19:42.309Z,36.35
2019-03-24T16:22:13.103Z,34.18
2019-03-24T16:24:44.012Z,38.15
2019-03-24T16:27:14.991Z,32.30
2019-03-24T16:29:45.815Z,31.95
2019-03-24T16:32:16.701Z,28.98
2019-03-24T16:34:47.579Z,33.30
2019-03-24T16:37:18.546Z,29.60
2019-03-24T16:39:49.508Z,28.85
2019-03-24T16:42:20.677Z,32.88
2019-03-24T16:44:52.729Z,29.98
2019-03-24T16:47:23.778Z,32.75
2019-03-24T16:49:55.166Z,31.40
2019-03-24T16:52:26.336Z,48.87
2019-03-24T16:54:57.393Z,32.33
2019-03-24T17:01:16.859Z,37.10
2019-03-24T17:03:47.845Z,35.30
2019-03-24T17:06:18.755Z,33.15
2019-03-24T17:08:49.925Z,31.30
2019-03-24T17:11:20.775Z,34.33
2019-03-24T17:13:51.640Z,30.72
2019-03-24T17:16:22.408Z,32.15
2019-03-24T17:18:54.299Z,35.38
2019-03-24T17:21:25.135Z,34.88
2019-03-24T17:23:56.871Z,35.15
2019-03-24T17:26:27.635Z,31.73
2019-03-24T17:28:58.369Z,29.67
2019-03-24T17:31:29.171Z,28.32
2019-03-24T17:34:00.075Z,29.55
2019-03-24T17:36:30.839Z,32.15
2019-03-24T17:39:01.637Z,31.55
2019-03-24T17:41:34.016Z,32.05
2019-03-24T17:44:04.982Z,30.37
2019-03-24T17:46:35.825Z,32.60
2019-03-24T17:49:06.638Z,33.42
2019-03-24T17:51:37.377Z,35.00
2019-03-24T17:54:08.167Z,30.85
2019-03-24T17:56:39.088Z,30.52
2019-03-24T17:59:09.819Z,26.77
2019-03-24T18:01:40.671Z,31.00
2019-03-24T18:04:11.395Z,30.45
2019-03-24T18:06:42.232Z,28.85
2019-03-24T18:09:12.995Z,29.52
2019-03-24T18:11:44.000Z,26.45
2019-03-24T18:14:15.045Z,34.23
2019-03-24T18:16:48.032Z,31.57
2019-03-24T18:19:18.763Z,31.27
2019-03-24T18:21:49.606Z,32.20
2019-03-24T18:24:20.343Z,29.55
2019-03-24T18:26:51.228Z,32.93
2019-03-24T18:29:22.051Z,28.85
2019-03-24T18:31:52.875Z,42.62
2019-03-24T18:34:23.644Z,40.48
2019-03-24T18:36:54.683Z,36.73
2019-03-24T18:39:25.485Z,27.58
2019-03-24T18:41:56.314Z,26.02
2019-03-24T18:44:27.256Z,27.13
2019-03-24T18:46:58.079Z,27.20
2019-03-24T18:49:29.015Z,28.45
2019-03-24T18:51:59.753Z,29.35
2019-03-24T18:54:30.583Z,23.42
2019-03-24T18:57:01.489Z,25.80
2019-03-24T18:59:32.235Z,22.55
2019-03-24T19:02:03.123Z,24.25
2019-03-24T19:04:33.867Z,24.12
2019-03-24T19:07:04.740Z,22.87
2019-03-24T19:09:35.568Z,23.32
2019-03-24T19:12:06.466Z,23.95
2019-03-24T19:14:40.179Z,25.40
2019-03-24T19:17:11.020Z,26.50
2019-03-24T19:19:41.902Z,24.10
2019-03-24T19:22:13.147Z,24.57
2019-03-24T19:24:43.987Z,27.20
2019-03-24T19:27:14.797Z,24.92
2019-03-24T19:29:45.574Z,36.38
2019-03-24T19:32:16.327Z,29.27
2019-03-24T19:34:47.180Z,29.55
2019-03-24T19:37:17.920Z,28.10
2019-03-24T19:39:48.827Z,27.10
2019-03-24T19:42:19.683Z,27.30
2019-03-24T19:44:51.595Z,23.90
2019-03-24T19:47:22.580Z,25.17
2019-03-24T19:49:53.411Z,33.75
2019-03-24T19:52:24.303Z,28.77
2019-03-24T19:54:55.403Z,43.73
2019-03-24T19:57:26.263Z,58.83
2019-03-24T19:59:57.055Z,65.12
2019-03-24T20:02:28.865Z,63.08
2019-03-24T20:04:59.675Z,66.22
2019-03-24T20:07:31.592Z,65.67
2019-03-24T20:10:02.439Z,76.92
2019-03-24T20:12:33.433Z,77.92
2019-03-24T20:15:04.440Z,78.30
2019-03-24T20:17:35.251Z,81.05
2019-03-24T20:20:06.282Z,80.00
2019-03-24T20:22:37.127Z,79.22
2019-03-24T20:25:09.826Z,78.10
2019-03-24T20:27:40.624Z,75.50
2019-03-24T20:30:12.428Z,76.60
2019-03-24T20:32:44.321Z,77.32
2019-03-24T20:35:16.216Z,78.17
2019-03-24T20:37:47.247Z,80.07
2019-03-24T20:40:18.137Z,70.35
2019-03-24T20:42:48.948Z,78.67
2019-03-24T20:45:19.789Z,75.12
2019-03-24T20:47:50.679Z,77.92
2019-03-24T20:50:21.518Z,78.47
2019-03-24T20:53:03.684Z,76.12
2019-03-24T20:55:25.784Z,85.47
2019-03-24T20:57:56.526Z,70.80
2019-03-24T21:00:33.835Z,79.62
2019-03-24T21:03:05.411Z,71.47
2019-03-24T21:05:37.811Z,81.15
2019-03-24T21:08:08.696Z,75.85
2019-03-24T21:10:39.627Z,80.00
2019-03-24T21:13:10.568Z,77.55
2019-03-24T21:15:42.447Z,75.25
2019-03-24T21:18:13.405Z,81.60
2019-03-24T21:20:44.314Z,78.28
2019-03-24T21:23:15.151Z,71.50
2019-03-24T21:25:45.976Z,77.15
2019-03-24T21:28:16.803Z,82.95
2019-03-24T21:30:47.543Z,80.10
2019-03-24T21:33:18.579Z,83.37
2019-03-24T21:35:49.524Z,79.25
2019-03-24T21:38:20.317Z,72.65
2019-03-24T21:40:51.766Z,78.85
2019-03-24T21:43:22.560Z,79.70
2019-03-24T21:45:53.350Z,73.37
2019-03-24T21:48:24.131Z,73.65
2019-03-24T21:50:55.019Z,76.30
2019-03-24T21:53:25.977Z,72.15
2019-03-24T21:55:56.791Z,73.10
2019-03-24T21:58:27.999Z,72.30
2019-03-24T22:00:59.082Z,85.62
2019-03-24T22:03:29.879Z,80.80
2019-03-24T22:06:00.636Z,86.57
2019-03-24T22:08:31.379Z,82.12
2019-03-24T22:11:02.350Z,79.70
2019-03-24T22:13:33.328Z,77.27
2019-03-24T22:16:04.289Z,75.83
2019-03-24T22:18:35.058Z,78.25
2019-03-24T22:21:05.816Z,80.25
2019-03-24T22:23:36.727Z,80.00
2019-03-24T22:26:07.487Z,80.90
2019-03-24T22:28:38.336Z,70.00
2019-03-24T22:31:09.235Z,78.52
2019-03-24T22:33:40.022Z,81.72
2019-03-24T22:36:10.840Z,83.27
2019-03-24T22:38:41.609Z,85.07
2019-03-24T22:41:12.557Z,79.77
2019-03-24T22:43:43.502Z,73.15
2019-03-24T22:46:14.448Z,87.90
2019-03-24T22:48:46.280Z,74.45
2019-03-24T22:51:17.021Z,72.90
2019-03-24T22:53:47.923Z,74.75
2019-03-24T22:56:18.663Z,74.58
2019-03-24T22:58:49.512Z,82.22
2019-03-24T23:01:20.790Z,80.65
2019-03-24T23:03:51.734Z,74.95
2019-03-24T23:06:22.591Z,84.92
2019-03-24T23:08:53.564Z,77.55
2019-03-24T23:11:24.420Z,78.12
2019-03-24T23:13:55.330Z,76.95
2019-03-24T23:16:27.059Z,69.62
2019-03-24T23:18:57.984Z,82.05
2019-03-24T23:21:28.800Z,72.58
2019-03-24T23:23:59.717Z,78.57
2019-03-24T23:26:30.469Z,70.10
2019-03-24T23:29:01.644Z,70.55
2019-03-24T23:31:34.112Z,82.80
2019-03-24T23:34:05.180Z,74.65
2019-03-24T23:36:36.067Z,73.70
2019-03-24T23:39:08.161Z,79.72
2019-03-24T23:41:38.883Z,71.12
2019-03-24T23:44:09.663Z,67.75
2019-03-24T23:46:40.482Z,82.92
2019-03-24T23:49:11.259Z,78.25
2019-03-24T23:51:43.239Z,88.52
2019-03-24T23:54:14.112Z,74.25
2019-03-24T23:56:45.119Z,80.32
2019-03-24T23:59:15.915Z,72.87
